createdAt,value
2023-03-05T00:04:20.041Z,5.25
2023-03-05T00:09:22.060Z,4.75
2023-03-05T00:14:23.982Z,3.88
2023-03-05T00:19:25.796Z,4.55
2023-03-05T00:24:27.854Z,5.05
2023-03-05T00:29:31.873Z,6.65
2023-03-05T00:34:34.165Z,4.43
2023-03-05T00:39:36.219Z,4.97
2023-03-05T00:44:38.036Z,5.28
2023-03-05T00:49:39.814Z,3.75
2023-03-05T00:54:41.625Z,9.50
2023-03-05T00:59:43.689Z,3.63
2023-03-05T01:04:47.477Z,6.13
2023-03-05T01:09:49.411Z,9.65
2023-03-05T01:14:51.346Z,8.82
2023-03-05T01:19:53.320Z,9.23
2023-03-05T01:24:55.147Z,7.47
2023-03-05T01:29:56.984Z,6.07
2023-03-05T01:34:59.027Z,11.68
2023-03-05T01:40:00.803Z,7.47
2023-03-05T01:45:13.366Z,8.40
2023-03-05T01:50:20.652Z,7.25
2023-03-05T01:55:24.699Z,9.00
2023-03-05T02:00:34.193Z,6.78
2023-03-05T02:05:38.247Z,8.25
2023-03-05T02:10:44.675Z,10.70
2023-03-05T02:15:47.910Z,12.48
2023-03-05T02:20:56.379Z,8.20
2023-03-05T02:25:58.522Z,11.82
2023-03-05T02:31:01.001Z,10.45
2023-03-05T02:36:03.052Z,14.38
2023-03-05T02:41:05.428Z,13.38
2023-03-05T02:46:08.083Z,8.15
2023-03-05T02:51:11.058Z,8.60
2023-03-05T02:56:13.250Z,13.05
2023-03-05T03:01:15.252Z,22.27
2023-03-05T03:06:17.259Z,12.27
2023-03-05T03:11:19.531Z,10.32
2023-03-05T03:16:21.387Z,16.45
2023-03-05T03:21:25.980Z,19.92
2023-03-05T03:26:28.801Z,15.18
2023-03-05T03:31:30.584Z,18.25
2023-03-05T03:36:32.651Z,17.38
2023-03-05T03:41:34.769Z,13.05
2023-03-05T03:46:38.189Z,17.63
2023-03-05T03:51:40.018Z,14.95
2023-03-05T03:56:42.131Z,19.10
2023-03-05T04:01:44.346Z,9.05
2023-03-05T04:06:46.228Z,14.82
2023-03-05T04:11:48.171Z,13.75
2023-03-05T04:16:50.518Z,18.98
2023-03-05T04:21:52.671Z,11.77
2023-03-05T04:26:54.650Z,18.20
2023-03-05T04:31:56.691Z,11.82
2023-03-05T04:36:58.506Z,7.70
2023-03-05T04:42:00.802Z,17.13
2023-03-05T04:47:02.639Z,11.63
2023-03-05T04:52:04.670Z,12.70
2023-03-05T04:57:06.802Z,10.15
2023-03-05T05:02:08.769Z,15.93
2023-03-05T05:07:11.263Z,10.82
2023-03-05T05:12:13.328Z,10.73
2023-03-05T05:17:15.315Z,15.95
2023-03-05T05:22:17.557Z,11.00
2023-03-05T05:27:19.457Z,13.32
2023-03-05T05:32:24.389Z,11.82
2023-03-05T05:37:27.053Z,9.18
2023-03-05T05:42:29.877Z,11.63
2023-03-05T05:47:32.062Z,11.48
2023-03-05T05:52:33.900Z,14.27
2023-03-05T05:57:36.050Z,10.13
2023-03-05T06:02:39.581Z,16.48
2023-03-05T06:07:41.734Z,12.18
2023-03-05T06:12:43.565Z,8.80
2023-03-05T06:17:46.587Z,8.90
2023-03-05T06:22:48.396Z,10.38
2023-03-05T06:27:50.217Z,19.05
2023-03-05T06:32:52.135Z,8.70
2023-03-05T06:37:56.123Z,20.90
2023-03-05T06:42:57.956Z,26.45
2023-03-05T06:47:59.746Z,31.85
2023-03-05T06:53:01.638Z,13.07
2023-03-05T06:58:03.427Z,16.58
2023-03-05T07:03:05.226Z,14.77
2023-03-05T07:08:07.397Z,14.57
2023-03-05T07:13:10.037Z,12.63
2023-03-05T07:18:11.815Z,12.77
2023-03-05T07:23:14.066Z,17.08
2023-03-05T07:28:15.859Z,16.27
2023-03-05T07:33:17.638Z,19.40
2023-03-05T07:38:19.620Z,14.63
2023-03-05T07:43:21.385Z,20.75
2023-03-05T07:48:23.913Z,16.42
2023-03-05T07:53:25.817Z,16.67
2023-03-05T07:58:27.642Z,13.00
2023-03-05T08:03:29.475Z,11.18
2023-03-05T08:08:31.241Z,13.63
2023-03-05T08:13:33.295Z,19.48
2023-03-05T08:18:35.731Z,13.25
2023-03-05T08:23:37.736Z,16.58
2023-03-05T08:28:39.603Z,18.25
2023-03-05T08:33:41.978Z,9.23
2023-03-05T08:38:46.908Z,11.07
2023-03-05T08:43:48.837Z,9.15
2023-03-05T08:48:50.798Z,7.78
2023-03-05T08:53:54.262Z,9.35
2023-03-05T08:58:56.036Z,11.07
2023-03-05T09:04:01.605Z,7.35
2023-03-05T09:09:03.436Z,9.30
2023-03-05T09:14:06.972Z,8.77
2023-03-05T09:19:10.660Z,6.38
2023-03-05T09:24:13.722Z,9.50
2023-03-05T09:29:15.904Z,13.95
2023-03-05T09:34:17.666Z,9.80
2023-03-05T09:39:19.503Z,11.10
2023-03-05T09:44:34.796Z,9.98
2023-03-05T09:49:57.991Z,9.75
2023-03-05T09:54:59.908Z,11.50
2023-03-05T10:00:09.042Z,13.98
2023-03-05T10:05:20.961Z,12.50
2023-03-05T10:10:31.676Z,7.47
2023-03-05T10:20:59.869Z,10.55
2023-03-05T10:26:29.790Z,8.20
2023-03-05T10:31:37.790Z,5.13
2023-03-05T10:36:58.486Z,5.03
2023-03-05T10:42:39.220Z,4.03
2023-03-05T10:47:59.448Z,6.68
2023-03-05T10:53:13.968Z,1.98
2023-03-05T10:58:17.933Z,1.65
2023-03-05T11:03:19.852Z,3.28
2023-03-05T11:08:29.977Z,5.70
2023-03-05T11:13:33.866Z,2.85
2023-03-05T11:18:35.798Z,7.45
2023-03-05T11:23:38.208Z,3.35
2023-03-05T11:29:01.678Z,4.78
2023-03-05T11:34:23.770Z,4.93
2023-03-05T11:39:26.460Z,4.43
2023-03-05T11:44:49.089Z,3.17
2023-03-05T11:49:56.067Z,5.28
2023-03-05T11:55:25.746Z,3.20
2023-03-05T12:00:30.656Z,6.03
2023-03-05T12:05:34.443Z,4.75
2023-03-05T12:10:36.272Z,6.82
2023-03-05T12:15:48.031Z,4.20
2023-03-05T12:21:05.570Z,8.70
2023-03-05T12:26:07.384Z,7.88
2023-03-05T12:31:09.120Z,5.78
2023-03-05T12:36:19.812Z,5.70
2023-03-05T12:41:25.857Z,2.70
2023-03-05T12:46:33.055Z,5.05
2023-03-05T12:51:38.024Z,2.03
2023-03-05T12:56:45.524Z,6.70
2023-03-05T13:01:53.754Z,4.32
2023-03-05T13:07:14.087Z,4.53
2023-03-05T13:12:15.921Z,5.45
2023-03-05T13:17:41.100Z,10.40
2023-03-05T13:22:42.896Z,9.32
2023-03-05T13:27:44.770Z,9.05
2023-03-05T13:32:52.046Z,8.00
2023-03-05T13:37:54.008Z,16.55
2023-03-05T13:42:56.856Z,6.30
2023-03-05T13:48:00.978Z,6.50
2023-03-05T13:53:20.917Z,5.00
2023-03-05T13:58:44.342Z,9.40
2023-03-05T14:03:51.125Z,19.75
2023-03-05T14:08:59.795Z,11.52
2023-03-05T14:14:17.770Z,5.13
2023-03-05T14:19:35.371Z,7.53
2023-03-05T14:24:37.630Z,6.40
2023-03-05T14:29:45.830Z,30.00
2023-03-05T14:34:54.764Z,6.85
2023-03-05T14:39:59.571Z,8.70
2023-03-05T14:45:20.708Z,56.13
2023-03-05T14:50:27.836Z,31.67
2023-03-05T14:55:33.475Z,16.15
2023-03-05T15:00:35.329Z,14.27
2023-03-05T15:05:38.048Z,14.38
2023-03-05T15:10:40.016Z,12.82
2023-03-05T15:15:43.388Z,22.25
2023-03-05T15:20:46.556Z,16.20
2023-03-05T15:25:48.369Z,24.00
2023-03-05T15:30:50.300Z,10.57
2023-03-05T15:35:52.341Z,12.48
2023-03-05T15:40:54.313Z,10.93
2023-03-05T15:45:56.125Z,6.57
2023-03-05T15:50:58.166Z,6.57
2023-03-05T15:55:59.942Z,13.10
2023-03-05T16:01:01.707Z,10.73
2023-03-05T16:06:05.134Z,8.80
2023-03-05T16:11:07.984Z,8.95
2023-03-05T16:16:10.755Z,8.13
2023-03-05T16:21:14.058Z,9.35
2023-03-05T16:26:16.301Z,6.88
2023-03-05T16:31:18.133Z,8.23
2023-03-05T16:36:28.790Z,11.73
2023-03-05T16:41:31.360Z,9.95
2023-03-05T16:46:35.160Z,17.15
2023-03-05T16:51:37.131Z,19.80
2023-03-05T16:56:40.347Z,42.53
2023-03-05T17:01:42.294Z,26.05
2023-03-05T17:06:47.274Z,26.13
2023-03-05T17:11:49.221Z,13.38
2023-03-05T17:16:51.151Z,9.63
2023-03-05T17:21:53.123Z,11.80
2023-03-05T17:26:54.919Z,6.82
2023-03-05T17:31:56.901Z,11.85
2023-03-05T17:36:58.747Z,7.10
2023-03-05T17:42:01.189Z,9.27
2023-03-05T17:47:03.429Z,6.07
2023-03-05T17:52:05.441Z,17.58
2023-03-05T17:57:07.348Z,17.40
2023-03-05T18:02:09.608Z,8.00
2023-03-05T18:07:11.396Z,9.90
2023-03-05T18:12:13.185Z,6.65
2023-03-05T18:17:15.074Z,15.48
2023-03-05T18:22:16.958Z,7.88
2023-03-05T18:27:19.015Z,7.35
2023-03-05T18:32:22.690Z,10.13
2023-03-05T18:37:24.660Z,7.70
2023-03-05T18:42:26.473Z,18.20
2023-03-05T18:47:29.146Z,10.95
2023-03-05T18:52:30.928Z,13.45
2023-03-05T18:57:32.708Z,15.48
2023-03-05T19:02:34.651Z,19.35
2023-03-05T19:07:38.121Z,14.98
2023-03-05T19:13:40.030Z,17.05
2023-03-05T19:19:19.965Z,14.82
2023-03-05T19:24:25.096Z,14.60
2023-03-05T19:29:32.980Z,20.02
2023-03-05T19:34:36.186Z,17.95
2023-03-05T19:39:38.028Z,17.92
2023-03-05T19:44:40.135Z,17.42
2023-03-05T19:49:42.236Z,21.73
2023-03-05T19:54:44.167Z,15.93
2023-03-05T19:59:46.773Z,18.00
2023-03-05T20:04:49.712Z,12.82
2023-03-05T20:09:53.204Z,17.70
2023-03-05T20:14:55.704Z,16.92
2023-03-05T20:20:00.164Z,19.98
2023-03-05T20:25:02.174Z,23.83
2023-03-05T20:30:06.153Z,18.17
2023-03-05T20:35:12.754Z,21.75
2023-03-05T20:40:15.031Z,19.45
2023-03-05T20:45:17.072Z,16.00
2023-03-05T20:50:19.789Z,18.35
2023-03-05T20:55:21.797Z,16.50
2023-03-05T21:00:24.809Z,17.23
2023-03-05T21:05:28.846Z,19.15
2023-03-05T21:10:31.352Z,18.42
2023-03-05T21:15:33.273Z,19.85
2023-03-05T21:20:35.044Z,17.67
2023-03-05T21:25:37.026Z,22.58
2023-03-05T21:30:43.831Z,18.20
2023-03-05T21:35:45.977Z,22.52
2023-03-05T21:40:50.259Z,17.50
2023-03-05T21:45:53.861Z,21.63
2023-03-05T21:50:56.114Z,22.88
2023-03-05T21:56:25.459Z,24.52
2023-03-05T22:01:27.498Z,20.38
2023-03-05T22:06:29.385Z,24.73
2023-03-05T22:11:31.259Z,22.33
2023-03-05T22:16:33.090Z,24.17
2023-03-05T22:21:35.049Z,20.13
2023-03-05T22:26:39.660Z,23.42
2023-03-05T22:31:41.705Z,22.45
2023-03-05T22:36:43.974Z,26.95
2023-03-05T22:41:45.950Z,27.13
2023-03-05T22:46:47.730Z,33.22
2023-03-05T22:51:49.496Z,33.08
2023-03-05T22:56:51.441Z,30.60
2023-03-05T23:01:53.660Z,31.88
2023-03-05T23:06:56.198Z,36.95
2023-03-05T23:11:58.272Z,41.35
2023-03-05T23:17:00.088Z,37.00
2023-03-05T23:22:01.890Z,35.22
2023-03-05T23:27:07.769Z,32.83
2023-03-05T23:32:10.971Z,36.78
2023-03-05T23:37:13.038Z,33.33
2023-03-05T23:42:15.383Z,38.90
2023-03-05T23:47:17.125Z,36.83
2023-03-05T23:52:19.002Z,39.30
2023-03-05T23:57:20.878Z,37.95
